sensor_id;sensor_type;location;lat;lon;timestamp;P1;durP1;ratioP1;P2;durP2;ratioP2
11004;SDS011;5555;59.622;16.556;2023-03-21T00:00:15;1.50;;;1.40;;
11004;SDS011;5555;59.622;16.556;2023-03-21T00:02:41;1.60;;;1.43;;
11004;SDS011;5555;59.622;16.556;2023-03-21T00:05:07;5.07;;;1.60;;
11004;SDS011;5555;59.622;16.556;2023-03-21T00:07:32;3.37;;;1.80;;
11004;SDS011;5555;59.622;16.556;2023-03-21T00:09:58;2.20;;;1.33;;
11004;SDS011;5555;59.622;16.556;2023-03-21T00:12:23;1.30;;;1.20;;
11004;SDS011;5555;59.622;16.556;2023-03-21T00:14:49;3.10;;;1.60;;
11004;SDS011;5555;59.622;16.556;2023-03-21T00:17:17;2.23;;;1.70;;
11004;SDS011;5555;59.622;16.556;2023-03-21T00:19:46;1.53;;;1.40;;
11004;SDS011;5555;59.622;16.556;2023-03-21T00:22:12;2.70;;;1.40;;
11004;SDS011;5555;59.622;16.556;2023-03-21T00:24:38;1.43;;;1.33;;
11004;SDS011;5555;59.622;16.556;2023-03-21T00:27:04;1.30;;;1.20;;
11004;SDS011;5555;59.622;16.556;2023-03-21T00:29:31;1.83;;;1.23;;
11004;SDS011;5555;59.622;16.556;2023-03-21T00:31:56;1.70;;;1.60;;
11004;SDS011;5555;59.622;16.556;2023-03-21T00:34:22;1.80;;;1.70;;
11004;SDS011;5555;59.622;16.556;2023-03-21T00:36:48;3.27;;;2.07;;
11004;SDS011;5555;59.622;16.556;2023-03-21T00:39:13;2.07;;;1.70;;
11004;SDS011;5555;59.622;16.556;2023-03-21T00:41:39;1.77;;;1.60;;
11004;SDS011;5555;59.622;16.556;2023-03-21T00:44:05;2.27;;;1.60;;
11004;SDS011;5555;59.622;16.556;2023-03-21T00:46:31;2.13;;;1.33;;
11004;SDS011;5555;59.622;16.556;2023-03-21T00:48:56;1.77;;;1.53;;
11004;SDS011;5555;59.622;16.556;2023-03-21T00:51:22;1.80;;;1.70;;
11004;SDS011;5555;59.622;16.556;2023-03-21T00:53:52;2.47;;;1.37;;
11004;SDS011;5555;59.622;16.556;2023-03-21T00:56:19;2.23;;;1.87;;
11004;SDS011;5555;59.622;16.556;2023-03-21T00:58:45;2.30;;;1.30;;
11004;SDS011;5555;59.622;16.556;2023-03-21T01:01:11;1.77;;;1.60;;
11004;SDS011;5555;59.622;16.556;2023-03-21T01:03:36;2.30;;;1.67;;
11004;SDS011;5555;59.622;16.556;2023-03-21T01:06:08;2.00;;;1.80;;
11004;SDS011;5555;59.622;16.556;2023-03-21T01:08:38;3.67;;;2.40;;
11004;SDS011;5555;59.622;16.556;2023-03-21T01:11:10;3.10;;;2.03;;
11004;SDS011;5555;59.622;16.556;2023-03-21T01:13:38;2.50;;;1.90;;
11004;SDS011;5555;59.622;16.556;2023-03-21T01:16:05;3.20;;;1.97;;
11004;SDS011;5555;59.622;16.556;2023-03-21T01:18:32;4.90;;;2.30;;
11004;SDS011;5555;59.622;16.556;2023-03-21T01:20:59;3.20;;;2.33;;
11004;SDS011;5555;59.622;16.556;2023-03-21T01:23:26;3.00;;;2.40;;
11004;SDS011;5555;59.622;16.556;2023-03-21T01:25:53;2.90;;;1.80;;
11004;SDS011;5555;59.622;16.556;2023-03-21T01:28:20;2.70;;;2.50;;
11004;SDS011;5555;59.622;16.556;2023-03-21T01:30:47;2.20;;;2.00;;
11004;SDS011;5555;59.622;16.556;2023-03-21T01:33:14;2.03;;;1.87;;
11004;SDS011;5555;59.622;16.556;2023-03-21T01:35:41;2.50;;;2.30;;
11004;SDS011;5555;59.622;16.556;2023-03-21T01:38:06;2.70;;;2.37;;
11004;SDS011;5555;59.622;16.556;2023-03-21T01:40:34;2.53;;;2.30;;
11004;SDS011;5555;59.622;16.556;2023-03-21T01:43:00;3.07;;;2.43;;
11004;SDS011;5555;59.622;16.556;2023-03-21T01:48:30;2.20;;;2.00;;
11004;SDS011;5555;59.622;16.556;2023-03-21T01:50:56;2.50;;;2.30;;
11004;SDS011;5555;59.622;16.556;2023-03-21T01:53:25;3.33;;;3.00;;
11004;SDS011;5555;59.622;16.556;2023-03-21T01:55:57;3.03;;;2.60;;
11004;SDS011;5555;59.622;16.556;2023-03-21T01:58:31;3.60;;;2.60;;
11004;SDS011;5555;59.622;16.556;2023-03-21T02:00:57;2.70;;;2.27;;
11004;SDS011;5555;59.622;16.556;2023-03-21T02:03:24;3.07;;;2.60;;
11004;SDS011;5555;59.622;16.556;2023-03-21T02:05:54;3.97;;;3.20;;
11004;SDS011;5555;59.622;16.556;2023-03-21T02:08:30;2.87;;;2.57;;
11004;SDS011;5555;59.622;16.556;2023-03-21T02:10:56;3.07;;;2.47;;
11004;SDS011;5555;59.622;16.556;2023-03-21T02:13:22;2.90;;;2.70;;
11004;SDS011;5555;59.622;16.556;2023-03-21T02:15:57;3.97;;;2.70;;
11004;SDS011;5555;59.622;16.556;2023-03-21T02:18:40;3.13;;;2.83;;
11004;SDS011;5555;59.622;16.556;2023-03-21T02:26:34;3.37;;;3.00;;
11004;SDS011;5555;59.622;16.556;2023-03-21T02:29:06;2.60;;;2.40;;
11004;SDS011;5555;59.622;16.556;2023-03-21T02:34:37;3.60;;;3.30;;
11004;SDS011;5555;59.622;16.556;2023-03-21T02:37:34;3.60;;;3.03;;
11004;SDS011;5555;59.622;16.556;2023-03-21T02:40:20;2.90;;;2.60;;
11004;SDS011;5555;59.622;16.556;2023-03-21T02:46:21;3.63;;;3.23;;
11004;SDS011;5555;59.622;16.556;2023-03-21T02:49:05;3.60;;;2.70;;
11004;SDS011;5555;59.622;16.556;2023-03-21T02:51:32;7.40;;;3.90;;
11004;SDS011;5555;59.622;16.556;2023-03-21T02:54:02;3.97;;;3.53;;
11004;SDS011;5555;59.622;16.556;2023-03-21T02:56:31;4.67;;;3.43;;
11004;SDS011;5555;59.622;16.556;2023-03-21T02:58:57;4.23;;;3.30;;
11004;SDS011;5555;59.622;16.556;2023-03-21T03:01:25;4.30;;;3.90;;
11004;SDS011;5555;59.622;16.556;2023-03-21T03:03:51;3.70;;;2.87;;
11004;SDS011;5555;59.622;16.556;2023-03-21T03:06:18;4.47;;;3.53;;
11004;SDS011;5555;59.622;16.556;2023-03-21T03:11:21;3.97;;;3.27;;
11004;SDS011;5555;59.622;16.556;2023-03-21T03:13:54;4.80;;;4.27;;
11004;SDS011;5555;59.622;16.556;2023-03-21T03:16:31;4.63;;;4.13;;
11004;SDS011;5555;59.622;16.556;2023-03-21T03:19:24;4.30;;;3.90;;
11004;SDS011;5555;59.622;16.556;2023-03-21T03:24:44;4.10;;;3.50;;
11004;SDS011;5555;59.622;16.556;2023-03-21T03:27:20;3.40;;;3.10;;
11004;SDS011;5555;59.622;16.556;2023-03-21T03:29:54;4.80;;;4.07;;
11004;SDS011;5555;59.622;16.556;2023-03-21T03:32:30;4.80;;;4.20;;
11004;SDS011;5555;59.622;16.556;2023-03-21T03:35:09;3.97;;;3.40;;
11004;SDS011;5555;59.622;16.556;2023-03-21T03:37:37;4.20;;;3.80;;
11004;SDS011;5555;59.622;16.556;2023-03-21T03:40:27;5.77;;;3.93;;
11004;SDS011;5555;59.622;16.556;2023-03-21T03:42:51;6.43;;;3.93;;
11004;SDS011;5555;59.622;16.556;2023-03-21T03:45:19;4.57;;;4.00;;
11004;SDS011;5555;59.622;16.556;2023-03-21T03:53:21;4.37;;;3.93;;
11004;SDS011;5555;59.622;16.556;2023-03-21T03:55:49;5.20;;;4.43;;
11004;SDS011;5555;59.622;16.556;2023-03-21T03:58:18;5.53;;;4.57;;
11004;SDS011;5555;59.622;16.556;2023-03-21T04:00:45;6.27;;;5.07;;
11004;SDS011;5555;59.622;16.556;2023-03-21T04:03:11;4.87;;;4.33;;
11004;SDS011;5555;59.622;16.556;2023-03-21T04:05:37;5.77;;;4.40;;
11004;SDS011;5555;59.622;16.556;2023-03-21T04:08:03;5.00;;;4.50;;
11004;SDS011;5555;59.622;16.556;2023-03-21T04:10:28;5.90;;;3.87;;
11004;SDS011;5555;59.622;16.556;2023-03-21T04:12:54;5.97;;;4.37;;
11004;SDS011;5555;59.622;16.556;2023-03-21T04:15:20;6.67;;;4.23;;
11004;SDS011;5555;59.622;16.556;2023-03-21T04:17:46;7.70;;;6.40;;
11004;SDS011;5555;59.622;16.556;2023-03-21T04:20:12;6.53;;;5.93;;
11004;SDS011;5555;59.622;16.556;2023-03-21T04:22:38;7.13;;;6.07;;
11004;SDS011;5555;59.622;16.556;2023-03-21T04:25:03;7.20;;;6.50;;
11004;SDS011;5555;59.622;16.556;2023-03-21T04:27:30;10.90;;;6.33;;
11004;SDS011;5555;59.622;16.556;2023-03-21T04:29:56;8.47;;;6.17;;
11004;SDS011;5555;59.622;16.556;2023-03-21T04:32:22;7.43;;;6.13;;
11004;SDS011;5555;59.622;16.556;2023-03-21T04:34:50;7.80;;;6.70;;
11004;SDS011;5555;59.622;16.556;2023-03-21T04:37:18;6.67;;;5.80;;
11004;SDS011;5555;59.622;16.556;2023-03-21T04:39:45;6.90;;;5.80;;
11004;SDS011;5555;59.622;16.556;2023-03-21T04:42:12;8.40;;;6.23;;
11004;SDS011;5555;59.622;16.556;2023-03-21T04:44:38;6.57;;;5.93;;
11004;SDS011;5555;59.622;16.556;2023-03-21T04:47:04;6.20;;;5.53;;
11004;SDS011;5555;59.622;16.556;2023-03-21T04:49:30;7.70;;;6.20;;
11004;SDS011;5555;59.622;16.556;2023-03-21T04:51:56;5.00;;;4.53;;
11004;SDS011;5555;59.622;16.556;2023-03-21T04:54:22;10.37;;;7.10;;
11004;SDS011;5555;59.622;16.556;2023-03-21T04:56:48;8.37;;;6.90;;
11004;SDS011;5555;59.622;16.556;2023-03-21T04:59:16;10.50;;;8.33;;
11004;SDS011;5555;59.622;16.556;2023-03-21T05:01:42;11.20;;;7.33;;
11004;SDS011;5555;59.622;16.556;2023-03-21T05:04:09;11.00;;;7.50;;
11004;SDS011;5555;59.622;16.556;2023-03-21T05:06:36;11.40;;;7.70;;
11004;SDS011;5555;59.622;16.556;2023-03-21T05:09:02;8.13;;;7.13;;
11004;SDS011;5555;59.622;16.556;2023-03-21T05:11:32;10.10;;;7.67;;
11004;SDS011;5555;59.622;16.556;2023-03-21T05:14:01;9.23;;;8.03;;
11004;SDS011;5555;59.622;16.556;2023-03-21T05:16:32;16.07;;;7.83;;
11004;SDS011;5555;59.622;16.556;2023-03-21T05:18:59;10.17;;;7.47;;
11004;SDS011;5555;59.622;16.556;2023-03-21T05:21:28;12.00;;;8.53;;
11004;SDS011;5555;59.622;16.556;2023-03-21T05:24:05;14.07;;;8.23;;
11004;SDS011;5555;59.622;16.556;2023-03-21T05:26:36;11.03;;;8.23;;
11004;SDS011;5555;59.622;16.556;2023-03-21T05:29:02;12.80;;;8.63;;
11004;SDS011;5555;59.622;16.556;2023-03-21T05:31:28;10.50;;;7.77;;
11004;SDS011;5555;59.622;16.556;2023-03-21T05:33:54;13.27;;;8.37;;
11004;SDS011;5555;59.622;16.556;2023-03-21T05:36:19;11.43;;;8.53;;
11004;SDS011;5555;59.622;16.556;2023-03-21T05:38:45;13.73;;;8.77;;
11004;SDS011;5555;59.622;16.556;2023-03-21T05:41:11;10.07;;;7.07;;
11004;SDS011;5555;59.622;16.556;2023-03-21T05:43:37;12.23;;;7.83;;
11004;SDS011;5555;59.622;16.556;2023-03-21T05:46:03;10.13;;;7.83;;
11004;SDS011;5555;59.622;16.556;2023-03-21T05:48:29;8.70;;;7.43;;
11004;SDS011;5555;59.622;16.556;2023-03-21T05:50:55;11.03;;;7.63;;
11004;SDS011;5555;59.622;16.556;2023-03-21T05:53:20;12.23;;;7.50;;
11004;SDS011;5555;59.622;16.556;2023-03-21T05:55:46;10.90;;;7.73;;
11004;SDS011;5555;59.622;16.556;2023-03-21T05:58:11;8.40;;;7.30;;
11004;SDS011;5555;59.622;16.556;2023-03-21T06:00:37;10.70;;;7.10;;
11004;SDS011;5555;59.622;16.556;2023-03-21T06:03:03;7.83;;;6.83;;
11004;SDS011;5555;59.622;16.556;2023-03-21T06:05:28;10.77;;;7.53;;
11004;SDS011;5555;59.622;16.556;2023-03-21T06:07:54;8.60;;;6.80;;
11004;SDS011;5555;59.622;16.556;2023-03-21T06:10:20;8.97;;;7.60;;
11004;SDS011;5555;59.622;16.556;2023-03-21T06:12:46;9.03;;;7.73;;
11004;SDS011;5555;59.622;16.556;2023-03-21T06:15:11;7.80;;;6.93;;
11004;SDS011;5555;59.622;16.556;2023-03-21T06:17:37;7.83;;;6.23;;
11004;SDS011;5555;59.622;16.556;2023-03-21T06:20:03;7.40;;;6.50;;
11004;SDS011;5555;59.622;16.556;2023-03-21T06:22:31;6.90;;;6.20;;
11004;SDS011;5555;59.622;16.556;2023-03-21T06:24:57;6.73;;;5.90;;
11004;SDS011;5555;59.622;16.556;2023-03-21T06:27:23;6.50;;;5.80;;
11004;SDS011;5555;59.622;16.556;2023-03-21T06:29:48;6.00;;;5.37;;
11004;SDS011;5555;59.622;16.556;2023-03-21T06:32:14;5.87;;;5.30;;
11004;SDS011;5555;59.622;16.556;2023-03-21T06:34:40;6.70;;;5.30;;
11004;SDS011;5555;59.622;16.556;2023-03-21T06:37:06;6.80;;;5.70;;
11004;SDS011;5555;59.622;16.556;2023-03-21T06:39:32;6.33;;;5.53;;
11004;SDS011;5555;59.622;16.556;2023-03-21T06:41:58;5.90;;;5.40;;
11004;SDS011;5555;59.622;16.556;2023-03-21T06:44:24;5.80;;;5.20;;
11004;SDS011;5555;59.622;16.556;2023-03-21T06:46:50;5.53;;;5.03;;
11004;SDS011;5555;59.622;16.556;2023-03-21T06:49:16;6.03;;;4.77;;
11004;SDS011;5555;59.622;16.556;2023-03-21T06:51:42;5.00;;;4.57;;
11004;SDS011;5555;59.622;16.556;2023-03-21T06:54:07;6.53;;;5.00;;
11004;SDS011;5555;59.622;16.556;2023-03-21T06:56:33;5.50;;;4.83;;
11004;SDS011;5555;59.622;16.556;2023-03-21T06:58:59;5.23;;;4.70;;
11004;SDS011;5555;59.622;16.556;2023-03-21T07:01:26;3.97;;;3.60;;
11004;SDS011;5555;59.622;16.556;2023-03-21T07:03:52;3.57;;;3.27;;
11004;SDS011;5555;59.622;16.556;2023-03-21T07:06:20;4.97;;;3.27;;
11004;SDS011;5555;59.622;16.556;2023-03-21T07:08:46;4.23;;;3.10;;
11004;SDS011;5555;59.622;16.556;2023-03-21T07:11:12;3.37;;;2.63;;
11004;SDS011;5555;59.622;16.556;2023-03-21T07:13:38;3.97;;;2.50;;
11004;SDS011;5555;59.622;16.556;2023-03-21T07:16:04;3.70;;;2.33;;
11004;SDS011;5555;59.622;16.556;2023-03-21T07:18:30;5.53;;;2.50;;
11004;SDS011;5555;59.622;16.556;2023-03-21T07:20:56;3.23;;;2.00;;
11004;SDS011;5555;59.622;16.556;2023-03-21T07:23:23;2.33;;;2.07;;
11004;SDS011;5555;59.622;16.556;2023-03-21T07:25:50;3.57;;;2.20;;
11004;SDS011;5555;59.622;16.556;2023-03-21T07:28:16;4.53;;;2.23;;
11004;SDS011;5555;59.622;16.556;2023-03-21T07:30:42;5.60;;;2.73;;
11004;SDS011;5555;59.622;16.556;2023-03-21T07:33:08;5.50;;;2.27;;
11004;SDS011;5555;59.622;16.556;2023-03-21T07:35:35;3.87;;;3.03;;
11004;SDS011;5555;59.622;16.556;2023-03-21T07:38:02;7.07;;;2.83;;
11004;SDS011;5555;59.622;16.556;2023-03-21T07:40:28;4.33;;;3.70;;
11004;SDS011;5555;59.622;16.556;2023-03-21T07:42:54;9.87;;;4.37;;
11004;SDS011;5555;59.622;16.556;2023-03-21T07:45:20;8.67;;;3.70;;
11004;SDS011;5555;59.622;16.556;2023-03-21T07:47:47;10.57;;;4.03;;
11004;SDS011;5555;59.622;16.556;2023-03-21T07:50:14;8.90;;;3.90;;
11004;SDS011;5555;59.622;16.556;2023-03-21T07:52:39;5.13;;;3.30;;
11004;SDS011;5555;59.622;16.556;2023-03-21T07:55:06;5.33;;;3.30;;
11004;SDS011;5555;59.622;16.556;2023-03-21T07:57:32;6.43;;;3.10;;
11004;SDS011;5555;59.622;16.556;2023-03-21T07:59:58;7.23;;;3.57;;
11004;SDS011;5555;59.622;16.556;2023-03-21T08:02:23;9.43;;;3.67;;
11004;SDS011;5555;59.622;16.556;2023-03-21T08:04:49;12.20;;;3.30;;
11004;SDS011;5555;59.622;16.556;2023-03-21T08:07:15;4.53;;;3.00;;
11004;SDS011;5555;59.622;16.556;2023-03-21T08:09:41;4.63;;;3.03;;
11004;SDS011;5555;59.622;16.556;2023-03-21T08:12:08;3.47;;;3.07;;
11004;SDS011;5555;59.622;16.556;2023-03-21T08:14:35;4.20;;;2.90;;
11004;SDS011;5555;59.622;16.556;2023-03-21T08:17:01;4.33;;;2.70;;
11004;SDS011;5555;59.622;16.556;2023-03-21T08:19:27;4.40;;;2.90;;
11004;SDS011;5555;59.622;16.556;2023-03-21T08:21:53;4.00;;;2.87;;
11004;SDS011;5555;59.622;16.556;2023-03-21T08:24:19;6.83;;;2.70;;
11004;SDS011;5555;59.622;16.556;2023-03-21T08:26:44;3.63;;;2.73;;
11004;SDS011;5555;59.622;16.556;2023-03-21T08:29:13;4.40;;;2.77;;
11004;SDS011;5555;59.622;16.556;2023-03-21T08:31:39;3.73;;;2.73;;
11004;SDS011;5555;59.622;16.556;2023-03-21T08:34:05;6.77;;;2.73;;
11004;SDS011;5555;59.622;16.556;2023-03-21T08:36:31;5.37;;;2.73;;
11004;SDS011;5555;59.622;16.556;2023-03-21T08:39:01;4.00;;;3.43;;
11004;SDS011;5555;59.622;16.556;2023-03-21T08:41:33;3.80;;;2.70;;
11004;SDS011;5555;59.622;16.556;2023-03-21T08:44:01;4.07;;;2.67;;
11004;SDS011;5555;59.622;16.556;2023-03-21T08:46:28;3.17;;;2.57;;
11004;SDS011;5555;59.622;16.556;2023-03-21T08:48:54;2.50;;;2.30;;
11004;SDS011;5555;59.622;16.556;2023-03-21T08:51:20;3.90;;;2.50;;
11004;SDS011;5555;59.622;16.556;2023-03-21T08:53:46;5.77;;;2.90;;
11004;SDS011;5555;59.622;16.556;2023-03-21T08:56:14;3.30;;;2.67;;
11004;SDS011;5555;59.622;16.556;2023-03-21T08:58:40;2.87;;;2.53;;
11004;SDS011;5555;59.622;16.556;2023-03-21T09:01:06;5.73;;;2.60;;
11004;SDS011;5555;59.622;16.556;2023-03-21T09:03:35;6.40;;;2.80;;
11004;SDS011;5555;59.622;16.556;2023-03-21T09:06:03;4.33;;;2.83;;
11004;SDS011;5555;59.622;16.556;2023-03-21T09:08:29;4.10;;;3.17;;
11004;SDS011;5555;59.622;16.556;2023-03-21T09:10:55;8.00;;;4.23;;
11004;SDS011;5555;59.622;16.556;2023-03-21T09:13:21;8.90;;;3.67;;
11004;SDS011;5555;59.622;16.556;2023-03-21T09:15:47;7.43;;;3.23;;
11004;SDS011;5555;59.622;16.556;2023-03-21T09:18:13;7.50;;;3.60;;
11004;SDS011;5555;59.622;16.556;2023-03-21T09:20:43;6.17;;;3.10;;
11004;SDS011;5555;59.622;16.556;2023-03-21T09:23:11;6.53;;;3.43;;
11004;SDS011;5555;59.622;16.556;2023-03-21T09:25:37;5.33;;;3.40;;
11004;SDS011;5555;59.622;16.556;2023-03-21T09:28:04;6.93;;;4.13;;
11004;SDS011;5555;59.622;16.556;2023-03-21T09:30:34;6.07;;;3.77;;
11004;SDS011;5555;59.622;16.556;2023-03-21T09:33:01;7.83;;;3.63;;
11004;SDS011;5555;59.622;16.556;2023-03-21T09:35:30;4.30;;;3.90;;
11004;SDS011;5555;59.622;16.556;2023-03-21T09:37:56;6.20;;;4.20;;
11004;SDS011;5555;59.622;16.556;2023-03-21T09:43:39;6.10;;;4.10;;
11004;SDS011;5555;59.622;16.556;2023-03-21T09:49:00;5.43;;;4.23;;
11004;SDS011;5555;59.622;16.556;2023-03-21T09:51:33;7.40;;;4.03;;
11004;SDS011;5555;59.622;16.556;2023-03-21T09:54:04;7.30;;;4.13;;
11004;SDS011;5555;59.622;16.556;2023-03-21T09:56:36;11.83;;;4.60;;
11004;SDS011;5555;59.622;16.556;2023-03-21T09:59:05;10.33;;;3.87;;
11004;SDS011;5555;59.622;16.556;2023-03-21T10:01:34;10.57;;;4.37;;
11004;SDS011;5555;59.622;16.556;2023-03-21T10:04:11;7.67;;;3.60;;
11004;SDS011;5555;59.622;16.556;2023-03-21T10:06:44;4.83;;;3.37;;
11004;SDS011;5555;59.622;16.556;2023-03-21T10:09:19;4.10;;;2.93;;
11004;SDS011;5555;59.622;16.556;2023-03-21T10:14:29;6.43;;;3.20;;
11004;SDS011;5555;59.622;16.556;2023-03-21T10:17:00;5.13;;;3.00;;
11004;SDS011;5555;59.622;16.556;2023-03-21T10:20:09;7.30;;;3.53;;
11004;SDS011;5555;59.622;16.556;2023-03-21T10:22:39;7.77;;;3.30;;
11004;SDS011;5555;59.622;16.556;2023-03-21T10:25:07;8.13;;;3.50;;
11004;SDS011;5555;59.622;16.556;2023-03-21T10:27:39;9.83;;;4.00;;
11004;SDS011;5555;59.622;16.556;2023-03-21T10:30:05;10.97;;;3.40;;
11004;SDS011;5555;59.622;16.556;2023-03-21T10:32:39;8.80;;;3.30;;
11004;SDS011;5555;59.622;16.556;2023-03-21T10:35:05;9.10;;;3.60;;
11004;SDS011;5555;59.622;16.556;2023-03-21T10:37:31;13.30;;;3.70;;
11004;SDS011;5555;59.622;16.556;2023-03-21T10:40:00;5.00;;;2.67;;
11004;SDS011;5555;59.622;16.556;2023-03-21T10:42:27;10.50;;;3.37;;
11004;SDS011;5555;59.622;16.556;2023-03-21T10:44:56;11.00;;;3.43;;
11004;SDS011;5555;59.622;16.556;2023-03-21T10:47:32;9.00;;;2.90;;
11004;SDS011;5555;59.622;16.556;2023-03-21T10:50:00;6.80;;;2.87;;
11004;SDS011;5555;59.622;16.556;2023-03-21T10:52:28;6.57;;;2.20;;
11004;SDS011;5555;59.622;16.556;2023-03-21T10:55:04;9.63;;;3.07;;
11004;SDS011;5555;59.622;16.556;2023-03-21T10:57:56;7.20;;;2.10;;
11004;SDS011;5555;59.622;16.556;2023-03-21T11:00:39;6.93;;;2.50;;
11004;SDS011;5555;59.622;16.556;2023-03-21T11:03:16;6.27;;;2.17;;
11004;SDS011;5555;59.622;16.556;2023-03-21T11:05:55;5.33;;;2.10;;
11004;SDS011;5555;59.622;16.556;2023-03-21T11:08:29;8.40;;;2.07;;
11004;SDS011;5555;59.622;16.556;2023-03-21T11:11:05;7.10;;;1.77;;
11004;SDS011;5555;59.622;16.556;2023-03-21T11:13:36;6.73;;;1.50;;
11004;SDS011;5555;59.622;16.556;2023-03-21T11:16:10;8.00;;;1.70;;
11004;SDS011;5555;59.622;16.556;2023-03-21T11:19:02;3.77;;;1.60;;
11004;SDS011;5555;59.622;16.556;2023-03-21T11:21:37;5.20;;;1.60;;
11004;SDS011;5555;59.622;16.556;2023-03-21T11:24:03;4.63;;;1.30;;
11004;SDS011;5555;59.622;16.556;2023-03-21T11:26:32;5.70;;;1.53;;
11004;SDS011;5555;59.622;16.556;2023-03-21T11:29:46;8.47;;;1.53;;
11004;SDS011;5555;59.622;16.556;2023-03-21T11:31:46;6.80;;;1.37;;
11004;SDS011;5555;59.622;16.556;2023-03-21T11:34:23;4.50;;;1.20;;
11004;SDS011;5555;59.622;16.556;2023-03-21T11:36:51;9.60;;;1.47;;
11004;SDS011;5555;59.622;16.556;2023-03-21T11:39:26;3.00;;;1.27;;
11004;SDS011;5555;59.622;16.556;2023-03-21T11:41:58;3.37;;;1.20;;
11004;SDS011;5555;59.622;16.556;2023-03-21T11:44:26;2.67;;;0.90;;
11004;SDS011;5555;59.622;16.556;2023-03-21T11:46:59;5.23;;;1.07;;
11004;SDS011;5555;59.622;16.556;2023-03-21T11:49:26;9.43;;;1.50;;
11004;SDS011;5555;59.622;16.556;2023-03-21T11:57:30;5.17;;;1.17;;
11004;SDS011;5555;59.622;16.556;2023-03-21T12:05:22;5.33;;;1.10;;
11004;SDS011;5555;59.622;16.556;2023-03-21T12:13:45;5.97;;;1.00;;
11004;SDS011;5555;59.622;16.556;2023-03-21T12:19:10;11.27;;;1.40;;
11004;SDS011;5555;59.622;16.556;2023-03-21T12:24:38;7.27;;;1.20;;
11004;SDS011;5555;59.622;16.556;2023-03-21T12:27:13;7.10;;;1.30;;
11004;SDS011;5555;59.622;16.556;2023-03-21T12:37:56;8.17;;;1.10;;
11004;SDS011;5555;59.622;16.556;2023-03-21T12:45:51;3.17;;;0.70;;
11004;SDS011;5555;59.622;16.556;2023-03-21T12:51:10;3.30;;;0.87;;
11004;SDS011;5555;59.622;16.556;2023-03-21T12:53:52;3.40;;;0.60;;
11004;SDS011;5555;59.622;16.556;2023-03-21T13:07:35;2.97;;;0.53;;
11004;SDS011;5555;59.622;16.556;2023-03-21T13:10:11;1.47;;;0.60;;
11004;SDS011;5555;59.622;16.556;2023-03-21T13:12:50;4.30;;;0.87;;
11004;SDS011;5555;59.622;16.556;2023-03-21T13:18:23;3.87;;;0.70;;
11004;SDS011;5555;59.622;16.556;2023-03-21T13:20:57;3.37;;;0.67;;
11004;SDS011;5555;59.622;16.556;2023-03-21T13:23:33;3.57;;;0.90;;
11004;SDS011;5555;59.622;16.556;2023-03-21T13:26:01;1.73;;;0.80;;
11004;SDS011;5555;59.622;16.556;2023-03-21T13:28:28;2.60;;;0.60;;
11004;SDS011;5555;59.622;16.556;2023-03-21T13:31:14;3.80;;;0.67;;
11004;SDS011;5555;59.622;16.556;2023-03-21T13:33:46;6.67;;;0.47;;
11004;SDS011;5555;59.622;16.556;2023-03-21T13:36:14;24.27;;;2.77;;
11004;SDS011;5555;59.622;16.556;2023-03-21T13:38:50;3.13;;;0.90;;
11004;SDS011;5555;59.622;16.556;2023-03-21T13:41:20;4.10;;;0.53;;
11004;SDS011;5555;59.622;16.556;2023-03-21T13:51:40;1.87;;;0.70;;
11004;SDS011;5555;59.622;16.556;2023-03-21T13:54:15;6.37;;;0.80;;
11004;SDS011;5555;59.622;16.556;2023-03-21T13:59:12;8.80;;;0.80;;
11004;SDS011;5555;59.622;16.556;2023-03-21T14:01:57;6.67;;;1.07;;
11004;SDS011;5555;59.622;16.556;2023-03-21T14:04:25;4.00;;;0.73;;
11004;SDS011;5555;59.622;16.556;2023-03-21T14:06:54;4.90;;;0.90;;
11004;SDS011;5555;59.622;16.556;2023-03-21T14:12:02;5.90;;;1.10;;
11004;SDS011;5555;59.622;16.556;2023-03-21T14:14:32;3.47;;;0.70;;
11004;SDS011;5555;59.622;16.556;2023-03-21T14:17:10;4.23;;;1.10;;
11004;SDS011;5555;59.622;16.556;2023-03-21T14:19:50;9.00;;;1.30;;
11004;SDS011;5555;59.622;16.556;2023-03-21T14:22:17;4.73;;;0.70;;
11004;SDS011;5555;59.622;16.556;2023-03-21T14:24:59;3.80;;;0.90;;
11004;SDS011;5555;59.622;16.556;2023-03-21T14:27:32;3.70;;;0.80;;
11004;SDS011;5555;59.622;16.556;2023-03-21T14:30:01;6.37;;;1.20;;
11004;SDS011;5555;59.622;16.556;2023-03-21T14:32:29;13.60;;;2.60;;
11004;SDS011;5555;59.622;16.556;2023-03-21T14:34:55;5.57;;;1.00;;
11004;SDS011;5555;59.622;16.556;2023-03-21T14:37:25;4.63;;;1.37;;
11004;SDS011;5555;59.622;16.556;2023-03-21T14:39:59;5.27;;;0.80;;
11004;SDS011;5555;59.622;16.556;2023-03-21T14:42:33;5.13;;;1.30;;
11004;SDS011;5555;59.622;16.556;2023-03-21T14:45:05;1.10;;;0.60;;
11004;SDS011;5555;59.622;16.556;2023-03-21T14:47:39;5.07;;;0.70;;
11004;SDS011;5555;59.622;16.556;2023-03-21T14:50:05;5.80;;;1.03;;
11004;SDS011;5555;59.622;16.556;2023-03-21T14:52:34;5.90;;;0.87;;
11004;SDS011;5555;59.622;16.556;2023-03-21T14:55:04;6.67;;;1.00;;
11004;SDS011;5555;59.622;16.556;2023-03-21T14:57:38;4.57;;;0.97;;
11004;SDS011;5555;59.622;16.556;2023-03-21T15:00:04;8.03;;;1.27;;
11004;SDS011;5555;59.622;16.556;2023-03-21T15:02:39;2.73;;;1.00;;
11004;SDS011;5555;59.622;16.556;2023-03-21T15:05:10;4.47;;;1.10;;
11004;SDS011;5555;59.622;16.556;2023-03-21T15:07:56;3.47;;;0.93;;
11004;SDS011;5555;59.622;16.556;2023-03-21T15:10:24;4.43;;;1.17;;
11004;SDS011;5555;59.622;16.556;2023-03-21T15:12:59;3.07;;;0.70;;
11004;SDS011;5555;59.622;16.556;2023-03-21T15:15:27;4.57;;;1.57;;
11004;SDS011;5555;59.622;16.556;2023-03-21T15:17:57;5.47;;;1.17;;
11004;SDS011;5555;59.622;16.556;2023-03-21T15:20:28;4.77;;;1.10;;
11004;SDS011;5555;59.622;16.556;2023-03-21T15:23:00;4.53;;;0.93;;
11004;SDS011;5555;59.622;16.556;2023-03-21T15:25:41;6.63;;;1.40;;
11004;SDS011;5555;59.622;16.556;2023-03-21T15:28:11;5.33;;;1.10;;
11004;SDS011;5555;59.622;16.556;2023-03-21T15:30:38;4.33;;;1.03;;
11004;SDS011;5555;59.622;16.556;2023-03-21T15:33:15;8.90;;;1.33;;
11004;SDS011;5555;59.622;16.556;2023-03-21T15:35:43;4.73;;;1.20;;
11004;SDS011;5555;59.622;16.556;2023-03-21T15:38:21;5.83;;;1.47;;
11004;SDS011;5555;59.622;16.556;2023-03-21T15:40:48;1.87;;;1.10;;
11004;SDS011;5555;59.622;16.556;2023-03-21T15:43:14;3.63;;;0.93;;
11004;SDS011;5555;59.622;16.556;2023-03-21T15:45:54;5.30;;;1.00;;
11004;SDS011;5555;59.622;16.556;2023-03-21T15:48:21;1.80;;;0.80;;
11004;SDS011;5555;59.622;16.556;2023-03-21T15:51:03;4.80;;;1.10;;
11004;SDS011;5555;59.622;16.556;2023-03-21T15:53:42;3.80;;;1.30;;
11004;SDS011;5555;59.622;16.556;2023-03-21T15:56:08;8.77;;;1.70;;
11004;SDS011;5555;59.622;16.556;2023-03-21T15:58:41;1.57;;;0.77;;
11004;SDS011;5555;59.622;16.556;2023-03-21T16:01:13;7.23;;;1.27;;
11004;SDS011;5555;59.622;16.556;2023-03-21T16:03:43;5.67;;;1.17;;
11004;SDS011;5555;59.622;16.556;2023-03-21T16:08:43;3.47;;;0.60;;
11004;SDS011;5555;59.622;16.556;2023-03-21T16:11:24;2.07;;;0.60;;
11004;SDS011;5555;59.622;16.556;2023-03-21T16:13:52;3.17;;;0.50;;
11004;SDS011;5555;59.622;16.556;2023-03-21T16:16:22;4.70;;;1.03;;
11004;SDS011;5555;59.622;16.556;2023-03-21T16:18:50;7.83;;;0.73;;
11004;SDS011;5555;59.622;16.556;2023-03-21T16:21:18;4.27;;;0.53;;
11004;SDS011;5555;59.622;16.556;2023-03-21T16:23:45;1.80;;;0.60;;
11004;SDS011;5555;59.622;16.556;2023-03-21T16:26:12;3.00;;;0.57;;
11004;SDS011;5555;59.622;16.556;2023-03-21T16:28:40;7.57;;;1.00;;
11004;SDS011;5555;59.622;16.556;2023-03-21T16:31:08;5.93;;;0.70;;
11004;SDS011;5555;59.622;16.556;2023-03-21T16:33:43;2.40;;;0.97;;
11004;SDS011;5555;59.622;16.556;2023-03-21T16:36:13;4.13;;;1.00;;
11004;SDS011;5555;59.622;16.556;2023-03-21T16:38:42;5.20;;;1.07;;
11004;SDS011;5555;59.622;16.556;2023-03-21T16:41:13;10.70;;;4.93;;